Time;durP1;ratioP1;P1;durP2;ratioP2;P2;SDS_P1;SDS_P2;PMS_P1;PMS_P2;Temp;Humidity;BMP_temperature;BMP_pressure;BME280_temperature;BME280_humidity;BME280_pressure;Samples;Min_cycle;Max_cycle;Signal;HPM_P1;HPM_P2
2023/03/26 00:00:39;;;;;;;2.03;1.75;;;;;;;12.55;74.15;100763.91;4957632;28;20113;-81
2023/03/26 00:03:05;;;;;;;3.00;1.85;;;;;;;12.60;75.34;100772.31;4974313;28;20037;-82
2023/03/26 00:05:31;;;;;;;4.40;2.42;;;;;;;12.37;74.18;100739.81;4990055;28;20030;-82
2023/03/26 00:07:57;;;;;;;3.15;2.17;;;;;;;12.53;73.61;100768.34;5006274;28;20030;-81
2023/03/26 00:10:24;;;;;;;2.17;1.98;;;;;;;12.27;74.21;100744.66;4973774;28;20038;-81
2023/03/26 00:12:49;;;;;;;5.60;2.55;;;;;;;12.49;73.90;100772.06;4990080;28;20101;-82
2023/03/26 00:15:15;;;;;;;4.05;2.63;;;;;;;12.55;73.89;100787.28;4973612;28;20472;-82
2023/03/26 00:17:41;;;;;;;2.90;1.67;;;;;;;12.62;73.37;100780.84;4973611;28;20113;-81
2023/03/26 00:20:07;;;;;;;3.50;2.28;;;;;;;12.53;72.64;100768.34;4973958;28;20034;-81
2023/03/26 00:22:33;;;;;;;3.47;1.77;;;;;;;12.60;71.88;100773.13;4973886;28;20105;-82
2023/03/26 00:24:58;;;;;;;3.83;2.10;;;;;;;12.65;71.36;100793.63;4973791;28;20034;-81
2023/03/26 00:27:24;;;;;;;3.72;1.98;;;;;;;12.58;71.42;100787.94;4989971;28;20030;-82
2023/03/26 00:29:49;;;;;;;2.50;1.67;;;;;;;12.56;72.32;100778.56;4972981;28;20034;-81
2023/03/26 00:32:15;;;;;;;5.53;2.53;;;;;;;12.57;70.95;100801.00;4973705;28;20502;-81
2023/03/26 00:34:41;;;;;;;3.25;2.45;;;;;;;12.59;69.78;100806.97;4991406;28;20523;-81
2023/03/26 00:37:07;;;;;;;3.33;2.13;;;;;;;12.35;69.56;100791.78;4977425;28;20057;-81
2023/03/26 00:39:36;;;;;;;4.70;2.33;;;;;;;12.46;68.84;100805.94;4993665;28;20067;-81
2023/03/26 00:42:05;;;;;;;6.18;1.95;;;;;;;12.33;68.85;100796.22;4977854;28;20030;-81
2023/03/26 00:44:32;;;;;;;3.55;2.47;;;;;;;12.38;67.62;100792.53;4961784;28;20038;-81
2023/03/26 00:46:58;;;;;;;4.60;2.80;;;;;;;12.46;67.24;100804.16;4977508;28;20038;-81
2023/03/26 00:49:25;;;;;;;3.17;2.15;;;;;;;12.42;66.61;100799.25;4977200;28;20030;-81
2023/03/26 00:51:51;;;;;;;2.67;2.10;;;;;;;12.26;66.72;100789.66;4993622;28;20134;-81
2023/03/26 00:54:17;;;;;;;6.28;3.30;;;;;;;12.37;67.13;100811.59;4977034;28;20049;-81
2023/03/26 00:56:43;;;;;;;3.78;1.92;;;;;;;12.32;66.43;100814.47;4961082;28;20488;-81
2023/03/26 00:59:08;;;;;;;4.60;3.08;;;;;;;12.23;66.44;100799.38;4976662;28;20089;-81
2023/03/26 01:01:34;;;;;;;4.45;2.97;;;;;;;12.22;66.92;100801.16;4993019;28;20034;-82
2023/03/26 01:04:29;;;;;;;5.50;3.03;;;;;;;12.36;64.92;100831.53;4976912;28;20027;-81
2023/03/26 01:06:55;;;;;;;3.20;2.10;;;;;;;12.24;65.12;100821.81;4992987;28;20160;-81
2023/03/26 01:09:29;;;;;;;3.70;3.00;;;;;;;12.28;65.02;100824.16;4960897;28;20037;-81
2023/03/26 01:11:55;;;;;;;3.65;2.25;;;;;;;12.19;65.28;100813.41;4961594;28;20034;-82
2023/03/26 01:14:22;;;;;;;3.63;2.80;;;;;;;12.18;65.05;100811.75;4977053;28;20037;-81
2023/03/26 01:17:14;;;;;;;3.95;2.00;;;;;;;12.32;65.80;100843.00;4976800;28;20470;-81
2023/03/26 01:19:43;;;;;;;3.70;2.20;;;;;;;12.07;64.93;100805.38;4991540;28;20041;-82
2023/03/26 01:22:10;;;;;;;5.47;3.03;;;;;;;12.17;64.86;100831.66;4992787;28;20064;-81
2023/03/26 01:24:39;;;;;;;4.97;3.22;;;;;;;12.02;65.89;100796.16;4977063;28;20038;-81
2023/03/26 01:27:17;;;;;;;3.70;2.78;;;;;;;12.19;65.48;100826.38;4976426;28;20030;-82
2023/03/26 01:29:55;;;;;;;3.05;2.10;;;;;;;12.19;64.86;100824.66;4992494;28;20069;-81
2023/03/26 01:32:49;;;;;;;5.85;3.03;;;;;;;12.11;65.25;100821.63;4992709;28;20023;-82
2023/03/26 01:35:48;;;;;;;3.97;2.35;;;;;;;11.83;64.58;100796.28;4994739;28;20068;-81
2023/03/26 01:38:31;;;;;;;3.95;2.28;;;;;;;11.69;65.39;100775.38;4994110;28;20440;-81
2023/03/26 01:41:03;;;;;;;3.20;2.58;;;;;;;12.01;65.56;100833.38;4992181;28;20026;-82
2023/03/26 01:43:39;;;;;;;2.45;1.35;;;;;;;11.89;66.24;100827.06;4992427;28;20030;-81
2023/03/26 01:46:06;;;;;;;3.80;3.05;;;;;;;11.93;66.06;100827.75;4991987;28;20079;-81
2023/03/26 01:48:40;;;;;;;3.20;1.77;;;;;;;11.76;66.22;100805.25;4960045;28;20034;-82
2023/03/26 01:51:05;;;;;;;4.03;2.97;;;;;;;11.80;65.46;100821.50;4992643;28;20034;-82
2023/03/26 01:53:32;;;;;;;3.63;2.80;;;;;;;11.68;66.25;100834.13;4992188;28;20081;-82
2023/03/26 01:56:14;;;;;;;3.05;2.13;;;;;;;11.71;66.03;100834.00;4975560;28;20533;-82
2023/03/26 01:58:57;;;;;;;4.78;3.10;;;;;;;11.64;67.17;100839.56;4992247;28;20488;-82
2023/03/26 02:01:32;;;;;;;4.28;2.63;;;;;;;11.53;66.50;100832.31;4993615;28;20129;-81
2023/03/26 02:04:29;;;;;;;4.65;3.05;;;;;;;11.30;67.00;100811.88;4976040;28;20056;-81
2023/03/26 02:07:00;;;;;;;8.07;4.07;;;;;;;11.41;66.47;100853.66;4976862;28;20034;-82
2023/03/26 02:09:28;;;;;;;3.60;2.70;;;;;;;11.38;66.66;100851.19;4991709;28;20138;-81
2023/03/26 02:11:53;;;;;;;4.32;3.22;;;;;;;11.28;66.16;100839.59;4975633;28;20023;-81
2023/03/26 02:14:19;;;;;;;4.07;2.58;;;;;;;11.38;66.75;100838.25;4959580;28;20507;-82
2023/03/26 02:16:45;;;;;;;4.80;2.45;;;;;;;11.36;67.00;100847.84;4975689;28;20041;-81
2023/03/26 02:19:14;;;;;;;7.95;3.45;;;;;;;11.34;66.41;100850.50;4975856;28;20496;-81
2023/03/26 02:21:40;;;;;;;3.10;2.42;;;;;;;11.28;66.51;100834.41;4976007;28;20085;-82
2023/03/26 02:24:05;;;;;;;5.22;2.47;;;;;;;11.20;66.83;100848.56;4975669;28;20412;-81
2023/03/26 02:26:32;;;;;;;5.03;2.85;;;;;;;11.14;66.64;100835.94;4991368;28;20496;-82
2023/03/26 02:28:58;;;;;;;4.40;3.25;;;;;;;10.96;67.24;100826.44;4975052;28;20496;-81
2023/03/26 02:31:26;;;;;;;4.07;3.47;;;;;;;10.98;67.28;100854.84;4975317;28;20034;-81
2023/03/26 02:33:52;;;;;;;5.10;2.83;;;;;;;10.90;67.38;100862.97;4959850;28;20057;-81
2023/03/26 02:36:20;;;;;;;3.13;2.50;;;;;;;10.84;67.92;100860.69;4974921;28;20140;-81
2023/03/26 02:38:46;;;;;;;5.05;3.15;;;;;;;10.82;67.70;100862.50;4975200;28;20026;-81
2023/03/26 02:41:11;;;;;;;2.35;2.00;;;;;;;10.71;67.27;100865.56;4959129;28;20041;-81
2023/03/26 02:43:37;;;;;;;4.57;2.20;;;;;;;10.58;67.46;100847.16;4991289;28;20035;-81
2023/03/26 02:46:02;;;;;;;3.88;2.63;;;;;;;10.59;67.05;100861.78;4959045;28;20408;-81
2023/03/26 02:48:28;;;;;;;4.95;3.17;;;;;;;10.77;66.82;100877.38;4975107;28;20033;-81
2023/03/26 02:50:53;;;;;;;4.53;2.83;;;;;;;10.77;66.78;100886.00;4974826;28;20030;-81
2023/03/26 02:53:20;;;;;;;1.73;1.50;;;;;;;10.52;66.80;100844.00;4958629;28;20408;-81
2023/03/26 02:55:46;;;;;;;4.70;2.92;;;;;;;10.76;67.57;100888.66;4991475;28;20408;-82
2023/03/26 02:58:16;;;;;;;3.92;2.30;;;;;;;10.58;66.94;100878.22;4974486;28;20073;-81
2023/03/26 03:00:45;;;;;;;4.28;2.92;;;;;;;10.63;66.50;100878.03;4975259;28;20518;-81
2023/03/26 03:03:12;;;;;;;5.90;3.05;;;;;;;10.67;66.49;100905.44;4959441;28;20050;-81
2023/03/26 03:05:37;;;;;;;2.85;1.95;;;;;;;10.69;66.43;100905.34;4974975;28;20080;-81
2023/03/26 03:08:04;;;;;;;7.55;3.38;;;;;;;10.67;65.93;100905.44;4974249;28;20070;-81
2023/03/26 03:10:31;;;;;;;3.35;2.38;;;;;;;10.79;66.08;100924.72;4974913;28;20026;-81
2023/03/26 03:12:57;;;;;;;5.18;2.92;;;;;;;10.76;66.44;100919.69;4958504;28;20060;-81
2023/03/26 03:15:22;;;;;;;2.42;2.03;;;;;;;10.72;66.69;100913.00;4990874;28;20026;-81
2023/03/26 03:17:48;;;;;;;5.13;2.50;;;;;;;10.69;66.86;100915.69;4974821;28;20498;-81
2023/03/26 03:20:14;;;;;;;5.13;2.72;;;;;;;10.72;66.56;100925.94;4990679;28;20030;-82
2023/03/26 03:22:40;;;;;;;3.67;2.42;;;;;;;10.59;66.57;100918.69;4974326;28;20461;-81
2023/03/26 03:25:08;;;;;;;3.83;2.58;;;;;;;10.68;65.50;100919.19;4958334;28;20116;-82
2023/03/26 03:27:33;;;;;;;6.63;2.25;;;;;;;10.65;66.94;100924.53;4974814;28;20509;-82
2023/03/26 03:29:59;;;;;;;3.30;2.10;;;;;;;10.61;65.78;100909.13;4974318;28;20054;-82
2023/03/26 03:32:24;;;;;;;4.28;3.28;;;;;;;10.70;65.88;100914.78;4958316;28;20424;-82
2023/03/26 03:34:50;;;;;;;4.75;3.03;;;;;;;10.62;65.54;100905.66;4990284;28;20563;-82
2023/03/26 03:37:17;;;;;;;4.13;2.85;;;;;;;10.60;65.54;100922.13;4974121;28;20109;-82
2023/03/26 03:39:42;;;;;;;3.40;2.47;;;;;;;10.55;65.17;100927.50;4974315;28;20026;-82
2023/03/26 03:42:08;;;;;;;4.47;2.75;;;;;;;10.62;65.07;100930.69;4973989;28;20088;-81
2023/03/26 03:44:34;;;;;;;2.60;2.05;;;;;;;10.55;65.35;100930.09;4974042;28;20026;-82
2023/03/26 03:46:59;;;;;;;2.85;2.65;;;;;;;10.48;65.88;100925.25;4990041;28;20459;-82
2023/03/26 03:49:25;;;;;;;3.92;2.65;;;;;;;10.48;65.06;100939.03;4974080;28;20034;-81
2023/03/26 03:51:50;;;;;;;2.97;2.22;;;;;;;10.34;65.73;100923.28;4990011;28;20522;-82
2023/03/26 03:54:16;;;;;;;3.58;2.38;;;;;;;10.42;65.37;100928.97;4974351;28;20034;-82
2023/03/26 03:56:44;;;;;;;2.25;2.05;;;;;;;10.55;65.85;100942.19;4973902;28;20045;-82
2023/03/26 03:59:10;;;;;;;4.35;2.60;;;;;;;10.37;64.95;100919.72;4990197;28;20037;-82
2023/03/26 04:01:35;;;;;;;4.47;2.13;;;;;;;10.43;65.07;100922.88;4974008;28;20026;-82
2023/03/26 04:04:01;;;;;;;2.28;1.65;;;;;;;10.45;65.10;100931.41;4957737;28;20077;-82
2023/03/26 04:06:29;;;;;;;2.92;2.63;;;;;;;10.47;65.00;100929.59;4957430;28;20030;-82
2023/03/26 04:08:55;;;;;;;3.72;2.85;;;;;;;10.39;64.67;100928.25;4990831;28;20022;-82
2023/03/26 04:11:20;;;;;;;3.72;1.92;;;;;;;10.31;65.17;100928.56;4961853;28;20022;-82
2023/03/26 04:13:46;;;;;;;6.75;2.45;;;;;;;10.24;64.93;100930.59;4977673;28;20030;-81
2023/03/26 04:16:11;;;;;;;1.90;1.45;;;;;;;9.98;65.63;100904.97;4994141;28;20030;-82
2023/03/26 04:18:37;;;;;;;2.70;2.28;;;;;;;10.11;66.02;100938.88;4961684;28;20423;-81
2023/03/26 04:21:04;;;;;;;0.73;0.70;;;;;;;10.02;65.35;100925.44;4977838;28;20085;-81
2023/03/26 04:23:29;;;;;;;5.63;2.95;;;;;;;10.10;65.50;100934.63;4993937;28;20026;-81
2023/03/26 04:25:55;;;;;;;4.53;3.50;;;;;;;10.12;66.50;100935.38;4977499;28;20026;-81
2023/03/26 04:28:34;;;;;;;4.25;2.38;;;;;;;10.04;66.84;100915.06;4977218;28;21017;-81
2023/03/26 04:31:00;;;;;;;3.08;2.47;;;;;;;10.11;66.90;100921.63;4993586;28;20027;-81
2023/03/26 04:33:30;;;;;;;4.60;2.95;;;;;;;9.96;67.11;100910.19;4977704;28;20998;-81
2023/03/26 04:36:00;;;;;;;3.58;3.05;;;;;;;10.04;66.96;100925.38;4977249;28;20044;-81
2023/03/26 04:38:27;;;;;;;4.35;2.88;;;;;;;10.16;66.73;100942.97;4993519;28;20505;-81
2023/03/26 04:40:53;;;;;;;5.30;3.50;;;;;;;10.15;67.33;100943.03;4977662;28;20037;-81
2023/03/26 04:43:18;;;;;;;5.60;3.28;;;;;;;9.91;66.93;100906.94;4977683;28;20034;-81
2023/03/26 04:45:46;;;;;;;2.90;2.10;;;;;;;10.11;67.21;100946.63;4993410;28;20092;-81
2023/03/26 04:48:13;;;;;;;6.22;3.40;;;;;;;10.07;66.83;100951.94;4977667;28;20125;-81
2023/03/26 04:50:42;;;;;;;4.35;2.55;;;;;;;10.02;67.53;100953.88;4977053;28;20048;-82
2023/03/26 04:53:12;;;;;;;3.72;2.72;;;;;;;9.98;68.77;100946.31;4977545;28;20038;-81
2023/03/26 04:55:54;;;;;;;3.15;2.35;;;;;;;9.97;68.79;100950.66;4977905;28;20030;-81
2023/03/26 04:58:20;;;;;;;4.55;2.05;;;;;;;9.91;67.93;100950.88;4979069;28;20022;-81
2023/03/26 05:00:46;;;;;;;4.88;2.75;;;;;;;9.95;68.51;100956.78;4977327;28;20118;-82
2023/03/26 05:03:12;;;;;;;5.47;2.60;;;;;;;9.78;68.45;100940.22;4961069;28;20022;-81
2023/03/26 05:05:38;;;;;;;2.95;2.33;;;;;;;9.83;68.56;100952.94;4992868;28;20041;-81
2023/03/26 05:08:03;;;;;;;4.45;2.92;;;;;;;9.95;67.88;100952.47;4976948;28;20026;-81
2023/03/26 05:10:29;;;;;;;14.27;4.03;;;;;;;9.91;67.77;100958.63;4992989;28;20026;-81
2023/03/26 05:12:54;;;;;;;2.67;1.48;;;;;;;9.92;68.65;100956.88;4976800;28;20106;-81
2023/03/26 05:15:20;;;;;;;4.15;2.08;;;;;;;9.89;68.45;100952.69;4976929;28;20508;-81
2023/03/26 05:17:47;;;;;;;4.80;2.72;;;;;;;10.02;67.22;100955.59;4960655;28;20027;-82
2023/03/26 05:20:25;;;;;;;4.75;3.35;;;;;;;10.07;67.96;100951.94;4960236;28;20145;-81
2023/03/26 05:22:51;;;;;;;1.85;1.30;;;;;;;10.11;66.73;100946.63;4960916;28;20092;-81
2023/03/26 05:25:17;;;;;;;3.05;2.20;;;;;;;9.99;66.59;100928.16;4960429;28;20030;-81
2023/03/26 05:27:42;;;;;;;3.92;2.17;;;;;;;10.06;66.90;100919.25;4976883;28;20030;-82
2023/03/26 05:30:08;;;;;;;2.58;1.90;;;;;;;10.29;66.27;100938.13;4992650;28;20030;-82
2023/03/26 05:32:34;;;;;;;1.58;1.02;;;;;;;10.32;67.26;100945.75;4960487;28;20038;-81
2023/03/26 05:35:00;;;;;;;3.47;1.90;;;;;;;10.45;65.54;100946.09;4976091;28;20050;-81
2023/03/26 05:37:29;;;;;;;4.43;2.67;;;;;;;10.42;65.93;100916.03;4992576;28;20607;-82
2023/03/26 05:39:55;;;;;;;3.08;1.77;;;;;;;10.63;65.20;100929.78;4992578;28;20030;-82
2023/03/26 05:42:21;;;;;;;6.07;2.83;;;;;;;10.69;64.36;100926.88;4976310;28;20080;-82
2023/03/26 05:44:46;;;;;;;4.07;2.75;;;;;;;10.48;63.53;100882.13;4976245;28;20026;-81
2023/03/26 05:47:12;;;;;;;3.72;2.13;;;;;;;10.94;64.14;100939.59;4991735;28;20400;-82
2023/03/26 05:49:37;;;;;;;3.00;1.65;;;;;;;11.03;63.88;100939.16;4976007;28;20038;-82
2023/03/26 05:52:02;;;;;;;4.45;3.15;;;;;;;11.12;64.37;100943.94;4975908;28;20034;-82
2023/03/26 05:54:28;;;;;;;4.13;2.20;;;;;;;11.17;63.41;100938.53;4976200;28;20477;-82
2023/03/26 05:56:55;;;;;;;3.17;1.80;;;;;;;11.30;63.02;100949.97;4976147;28;20033;-81
2023/03/26 05:59:20;;;;;;;4.03;1.98;;;;;;;11.30;62.55;100952.56;4992238;28;20066;-81
2023/03/26 06:01:46;;;;;;;2.78;2.20;;;;;;;11.37;63.69;100947.94;4991760;28;20411;-81
2023/03/26 06:04:12;;;;;;;2.25;1.30;;;;;;;11.48;62.30;100956.06;4975950;28;20076;-81
2023/03/26 06:06:38;;;;;;;2.70;1.80;;;;;;;11.42;62.59;100925.28;4959865;28;20041;-81
2023/03/26 06:09:03;;;;;;;1.90;1.35;;;;;;;11.62;62.63;100945.03;4975519;28;20026;-81
2023/03/26 06:11:30;;;;;;;2.38;1.77;;;;;;;11.64;61.46;100938.03;4975794;28;20078;-81
2023/03/26 06:13:56;;;;;;;2.63;1.92;;;;;;;11.65;61.16;100944.88;4976014;28;20113;-81
2023/03/26 06:16:21;;;;;;;2.33;1.48;;;;;;;11.76;60.62;100951.22;4975148;28;20409;-81
2023/03/26 06:18:47;;;;;;;2.20;1.77;;;;;;;11.87;60.04;100948.13;4975583;28;20515;-81
2023/03/26 06:21:12;;;;;;;1.40;1.15;;;;;;;11.86;60.39;100950.81;4991723;28;20110;-81
2023/03/26 06:23:37;;;;;;;2.53;2.00;;;;;;;12.01;61.39;100950.91;4975564;28;20385;-81
2023/03/26 06:26:03;;;;;;;3.65;1.52;;;;;;;12.11;60.25;100951.28;4991436;28;20045;-81
2023/03/26 06:28:29;;;;;;;2.90;1.63;;;;;;;12.07;59.56;100932.44;4975113;28;20487;-81
2023/03/26 06:30:58;;;;;;;2.35;1.52;;;;;;;12.22;59.48;100964.56;4974584;28;20110;-81
2023/03/26 06:33:23;;;;;;;3.83;2.13;;;;;;;12.31;58.27;100953.72;4958962;28;20037;-81
2023/03/26 06:35:49;;;;;;;1.77;1.30;;;;;;;12.35;58.36;100951.78;4991199;28;20050;-81
2023/03/26 06:38:14;;;;;;;2.95;2.08;;;;;;;12.47;58.02;100971.06;4959184;28;20037;-81
2023/03/26 06:40:40;;;;;;;1.48;1.05;;;;;;;12.55;58.80;100961.16;4991488;28;20034;-81
2023/03/26 06:43:05;;;;;;;2.78;1.65;;;;;;;12.62;57.05;100978.09;4991345;28;20154;-81
2023/03/26 06:45:31;;;;;;;2.25;1.30;;;;;;;12.44;58.08;100932.31;4990872;28;20031;-81
2023/03/26 06:47:57;;;;;;;2.75;1.52;;;;;;;12.71;57.60;100966.38;4992442;28;20117;-80
2023/03/26 06:50:22;;;;;;;1.60;1.08;;;;;;;12.71;57.28;100962.03;4991266;28;20045;-81
2023/03/26 06:52:49;;;;;;;1.83;1.30;;;;;;;12.84;57.30;100964.81;4975072;28;20039;-81
2023/03/26 06:55:15;;;;;;;3.58;2.30;;;;;;;12.75;57.36;100952.31;4975041;28;20022;-81
2023/03/26 06:57:44;;;;;;;1.83;1.55;;;;;;;12.78;58.71;100958.22;4958840;28;20121;-81
2023/03/26 07:00:10;;;;;;;2.03;1.48;;;;;;;12.82;57.20;100969.25;4990802;28;20029;-81
2023/03/26 07:02:36;;;;;;;4.28;1.80;;;;;;;12.93;56.72;100977.31;4975038;28;20080;-80
2023/03/26 07:05:01;;;;;;;1.23;1.00;;;;;;;12.91;57.46;100968.78;4974610;28;20030;-81
2023/03/26 07:07:27;;;;;;;1.77;1.50;;;;;;;13.18;57.40;100988.09;4958643;28;20058;-81
2023/03/26 07:09:52;;;;;;;1.63;1.27;;;;;;;13.24;55.62;100984.34;4974685;28;20488;-81
2023/03/26 07:12:18;;;;;;;1.75;1.10;;;;;;;13.58;56.70;101000.69;4990672;28;20034;-81
2023/03/26 07:14:43;;;;;;;1.38;1.10;;;;;;;13.68;54.09;101014.84;4990229;28;20113;-81
2023/03/26 07:17:09;;;;;;;2.50;1.52;;;;;;;13.65;51.89;101007.22;4974365;28;20034;-81
2023/03/26 07:19:34;;;;;;;2.28;1.05;;;;;;;13.60;52.93;100988.44;4958392;28;20443;-81
2023/03/26 07:22:00;;;;;;;1.40;1.17;;;;;;;13.74;51.92;101001.50;4974189;28;20030;-81
2023/03/26 07:24:26;;;;;;;3.67;1.45;;;;;;;13.68;50.39;100996.66;4974547;28;20030;-81
2023/03/26 07:27:29;;;;;;;1.70;0.93;;;;;;;13.86;50.18;100998.19;4990277;28;20110;-81
2023/03/26 07:29:58;;;;;;;1.20;0.98;;;;;;;13.91;50.08;100992.75;4990217;28;20484;-81
2023/03/26 07:32:30;;;;;;;0.82;0.75;;;;;;;14.01;51.48;100999.94;4974292;28;20026;-81
2023/03/26 07:35:08;;;;;;;1.53;1.10;;;;;;;14.07;50.22;101010.00;4991509;28;20097;-81
2023/03/26 07:37:48;;;;;;;1.85;1.30;;;;;;;13.98;50.26;100997.53;4990501;28;20266;-81
2023/03/26 07:40:51;;;;;;;2.88;0.95;;;;;;;14.16;50.63;101020.78;4991228;28;20511;-81
2023/03/26 07:43:28;;;;;;;0.65;0.60;;;;;;;14.21;49.09;101010.97;4990848;28;20038;-82
2023/03/26 07:45:55;;;;;;;2.95;1.33;;;;;;;14.30;49.16;101016.47;4991210;28;20022;-81
2023/03/26 07:48:26;;;;;;;1.83;1.35;;;;;;;14.26;47.16;100990.72;4958183;28;20055;-81
2023/03/26 07:50:55;;;;;;;2.03;1.42;;;;;;;14.41;48.22;101007.19;4958355;28;20033;-81
2023/03/26 07:53:21;;;;;;;1.55;0.80;;;;;;;14.41;47.90;101002.00;4974623;28;20049;-81
2023/03/26 07:55:51;;;;;;;0.80;0.68;;;;;;;14.62;49.95;101004.19;4974320;28;20440;-81
2023/03/26 07:58:29;;;;;;;1.75;1.17;;;;;;;14.70;49.21;101002.91;4973639;28;20500;-81
2023/03/26 08:01:05;;;;;;;2.30;1.38;;;;;;;14.63;49.31;101002.41;4989893;28;20026;-81
2023/03/26 08:03:41;;;;;;;1.58;1.08;;;;;;;14.55;48.98;101000.28;4974229;28;20032;-82
2023/03/26 08:06:22;;;;;;;1.20;1.08;;;;;;;14.61;49.25;101012.94;4974625;28;20084;-81
2023/03/26 08:08:47;;;;;;;2.38;1.38;;;;;;;14.59;49.36;101020.00;4974323;28;20030;-81
2023/03/26 08:11:47;;;;;;;2.90;1.60;;;;;;;14.72;49.44;101016.66;4991265;28;20096;-81
2023/03/26 08:14:24;;;;;;;3.53;1.30;;;;;;;14.68;47.66;100989.13;4990945;28;20038;-81
2023/03/26 08:16:50;;;;;;;1.83;1.05;;;;;;;14.83;46.46;101015.06;4989912;28;20038;-81
2023/03/26 08:19:18;;;;;;;4.97;2.28;;;;;;;14.84;47.08;101008.09;4991247;28;20110;-81
2023/03/26 08:21:46;;;;;;;1.20;0.80;;;;;;;14.74;44.78;100973.13;4990797;28;20107;-81
2023/03/26 08:24:25;;;;;;;1.38;0.80;;;;;;;14.89;46.06;101014.72;4974233;28;20030;-81
2023/03/26 08:27:05;;;;;;;1.95;1.40;;;;;;;15.14;46.41;101013.22;4989911;28;20026;-81
2023/03/26 08:29:48;;;;;;;1.10;0.90;;;;;;;15.12;45.54;101009.88;4973295;28;20454;-81
2023/03/26 08:32:16;;;;;;;1.50;0.98;;;;;;;15.16;44.68;101013.97;4990008;28;20027;-81
2023/03/26 08:34:41;;;;;;;2.65;1.35;;;;;;;15.12;43.96;100989.84;4973643;28;20129;-82
2023/03/26 08:37:08;;;;;;;1.50;1.05;;;;;;;15.18;43.36;101010.34;4973626;28;20057;-82
2023/03/26 08:39:35;;;;;;;2.25;1.33;;;;;;;15.25;43.63;101007.34;4958088;28;20030;-81
2023/03/26 08:42:43;;;;;;;2.47;1.48;;;;;;;15.31;42.19;101005.19;4989553;28;20138;-82
2023/03/26 08:45:30;;;;;;;1.98;1.27;;;;;;;15.46;42.50;101003.41;4989475;28;20034;-82
2023/03/26 08:48:10;;;;;;;4.00;1.48;;;;;;;15.45;43.74;100976.50;4990835;28;20508;-82
2023/03/26 08:50:49;;;;;;;1.52;1.10;;;;;;;15.71;43.67;100987.03;4989895;28;20084;-82
2023/03/26 08:53:37;;;;;;;1.88;1.38;;;;;;;15.76;42.02;100982.38;4990830;28;20404;-82
2023/03/26 08:56:18;;;;;;;2.28;1.58;;;;;;;15.75;42.77;100991.97;4992124;28;20396;-82
2023/03/26 08:59:11;;;;;;;1.85;1.30;;;;;;;15.90;43.23;100994.50;4993449;28;20122;-82
2023/03/26 09:02:09;;;;;;;2.28;1.33;;;;;;;15.75;41.30;100985.91;4994441;28;20069;-82
2023/03/26 09:04:45;;;;;;;1.67;1.00;;;;;;;15.94;40.93;100982.94;4981757;28;20039;-82
2023/03/26 09:07:32;;;;;;;1.75;1.15;;;;;;;16.03;40.78;100984.97;4994394;28;20026;-82
2023/03/26 09:10:34;;;;;;;1.83;1.25;;;;;;;15.93;38.97;100978.66;4994002;28;20057;-82
2023/03/26 09:13:21;;;;;;;3.03;1.40;;;;;;;15.97;40.03;100983.56;4994279;28;20033;-82
2023/03/26 09:15:50;;;;;;;1.73;1.00;;;;;;;15.84;41.36;100934.91;4992992;28;20129;-81
2023/03/26 09:18:37;;;;;;;2.55;1.33;;;;;;;16.37;40.90;100980.09;4994425;28;20105;-81
2023/03/26 09:21:25;;;;;;;2.03;1.50;;;;;;;16.27;39.79;100967.66;4992645;28;20408;-82
2023/03/26 09:24:18;;;;;;;1.63;1.23;;;;;;;16.25;37.88;100977.38;4992857;28;20081;-82
2023/03/26 09:27:03;;;;;;;0.95;0.90;;;;;;;16.21;39.52;100933.28;4993768;28;20026;-82
2023/03/26 09:29:52;;;;;;;1.33;0.85;;;;;;;16.20;38.49;100924.63;4992640;28;20034;-82
2023/03/26 09:32:29;;;;;;;1.58;1.13;;;;;;;16.53;38.34;100954.63;4978173;28;20559;-82
2023/03/26 09:35:32;;;;;;;1.67;1.10;;;;;;;16.65;38.42;100966.81;4992370;28;20053;-82
2023/03/26 09:37:58;;;;;;;2.42;1.23;;;;;;;16.70;37.88;100951.69;4993878;28;20091;-82
2023/03/26 09:40:52;;;;;;;3.17;1.38;;;;;;;16.62;38.21;100933.91;4993479;28;20058;-82
2023/03/26 09:43:48;;;;;;;0.57;0.50;;;;;;;16.77;37.85;100939.88;4992432;28;20027;-82
2023/03/26 09:46:51;;;;;;;1.90;0.90;;;;;;;16.84;37.61;100935.91;4993682;28;20031;-82
2023/03/26 09:49:37;;;;;;;0.57;0.57;;;;;;;16.95;39.23;100929.91;4993545;28;20488;-82
2023/03/26 09:52:09;;;;;;;2.28;1.55;;;;;;;16.88;37.74;100924.28;4994291;28;20482;-82
2023/03/26 09:54:53;;;;;;;;;;;;;;;17.01;36.29;100931.25;4992797;28;20120;-82
2023/03/26 09:57:57;;;;;;;1.98;1.58;;;;;;;16.90;36.54;100895.41;5008532;28;19978;-82
2023/03/26 10:00:47;;;;;;;1.95;1.20;;;;;;;17.24;36.63;100932.22;4994353;28;20038;-82
2023/03/26 10:03:42;;;;;;;3.08;1.17;;;;;;;17.16;36.00;100920.53;4993383;28;20038;-82
2023/03/26 10:06:26;;;;;;;1.10;0.85;;;;;;;17.15;36.59;100894.50;4994138;28;20488;-82
2023/03/26 10:09:09;;;;;;;1.15;0.85;;;;;;;17.40;37.52;100898.78;4993542;28;20030;-82
2023/03/26 10:11:50;;;;;;;1.70;1.10;;;;;;;17.35;35.94;100917.44;4992334;28;21483;-82
2023/03/26 10:14:20;;;;;;;1.95;1.42;;;;;;;17.43;35.69;100899.41;4992928;28;20034;-82
2023/03/26 10:17:15;;;;;;;0.77;0.68;;;;;;;16.98;35.92;100853.06;4992030;28;20039;-82
2023/03/26 10:19:50;;;;;;;1.52;1.00;;;;;;;17.55;36.02;100908.13;4977711;28;20030;-82
2023/03/26 10:22:41;;;;;;;2.42;1.45;;;;;;;17.58;36.93;100886.13;4991729;28;20026;-82
2023/03/26 10:25:18;;;;;;;0.70;0.60;;;;;;;17.73;34.73;100885.03;4991768;28;20030;-82
2023/03/26 10:28:09;;;;;;;0.85;0.75;;;;;;;17.81;33.15;100887.94;4992960;28;20045;-82
2023/03/26 10:30:50;;;;;;;1.02;0.80;;;;;;;17.74;35.10;100871.00;4991251;28;21222;-82
2023/03/26 10:33:55;;;;;;;1.17;0.88;;;;;;;17.81;34.06;100853.06;4991771;28;20022;-82
2023/03/26 10:36:30;;;;;;;1.92;1.10;;;;;;;17.87;33.58;100871.75;4991416;28;20982;-82
2023/03/26 10:38:58;;;;;;;0.88;0.60;;;;;;;18.09;34.30;100867.50;4975092;28;20026;-82
2023/03/26 10:41:59;;;;;;;1.38;0.98;;;;;;;18.13;33.58;100876.78;4992631;28;20503;-82
2023/03/26 10:45:01;;;;;;;2.15;1.30;;;;;;;18.18;32.38;100856.31;4989986;28;20048;-82
2023/03/26 10:47:37;;;;;;;1.65;0.63;;;;;;;18.27;32.99;100842.50;4992237;28;20153;-82
2023/03/26 10:50:24;;;;;;;8.45;0.95;;;;;;;18.47;33.36;100839.16;4991588;28;20061;-82
2023/03/26 10:53:11;;;;;;;0.90;0.65;;;;;;;18.52;33.34;100851.91;4992136;28;20105;-82
2023/03/26 10:55:38;;;;;;;2.08;0.55;;;;;;;18.40;31.66;100843.25;4991187;28;20093;-82
2023/03/26 10:58:23;;;;;;;1.08;0.65;;;;;;;18.48;31.80;100830.34;4975159;28;20030;-82
2023/03/26 11:01:00;;;;;;;0.88;0.50;;;;;;;18.35;31.85;100800.84;4974809;28;20052;-82
2023/03/26 11:03:53;;;;;;;1.15;0.80;;;;;;;18.71;31.42;100833.00;4976197;28;20038;-82
2023/03/26 11:07:13;;;;;;;1.17;0.80;;;;;;;18.86;30.30;100823.88;4990421;28;20022;-82
2023/03/26 11:10:07;;;;;;;0.90;0.60;;;;;;;18.73;31.11;100786.53;4989659;28;20041;-82
2023/03/26 11:12:41;;;;;;;2.22;0.93;;;;;;;18.88;31.29;100827.25;4975635;28;20069;-82
2023/03/26 11:15:21;;;;;;;0.55;0.47;;;;;;;18.80;30.02;100792.94;4974641;28;20381;-82
2023/03/26 11:18:08;;;;;;;0.90;0.60;;;;;;;19.02;30.00;100808.59;4990464;28;20480;-82
2023/03/26 11:20:46;;;;;;;3.80;0.70;;;;;;;19.11;29.33;100794.72;4991684;28;20027;-82
2023/03/26 11:23:36;;;;;;;0.85;0.63;;;;;;;19.17;29.51;100782.88;4990568;28;20451;-82
2023/03/26 11:26:16;;;;;;;1.33;0.80;;;;;;;19.16;30.25;100766.31;4990477;28;20033;-82
2023/03/26 11:28:47;;;;;;;2.05;0.75;;;;;;;19.44;29.31;100787.66;4990542;28;20054;-82
2023/03/26 11:31:12;;;;;;;0.95;0.57;;;;;;;19.70;30.61;100778.44;4991836;28;20076;-82
2023/03/26 11:33:42;;;;;;;0.65;0.55;;;;;;;19.39;27.92;100717.22;4991801;28;20018;-82
2023/03/26 11:36:11;;;;;;;0.73;0.55;;;;;;;19.49;28.59;100772.38;4974169;28;20082;-82
2023/03/26 11:38:37;;;;;;;0.47;0.47;;;;;;;19.59;27.66;100769.84;4958513;28;20088;-82
2023/03/26 11:41:09;;;;;;;2.78;0.80;;;;;;;19.47;27.93;100766.41;4974133;28;20100;-82
2023/03/26 11:43:35;;;;;;;1.88;0.77;;;;;;;19.47;26.76;100769.03;4958911;28;20039;-82
2023/03/26 11:46:03;;;;;;;0.80;0.57;;;;;;;19.54;26.14;100762.28;4990230;28;20401;-82
2023/03/26 11:48:39;;;;;;;0.82;0.60;;;;;;;19.58;25.69;100755.06;4958031;28;20031;-82
2023/03/26 11:51:07;;;;;;;0.98;0.63;;;;;;;19.61;25.87;100736.41;4974185;28;20509;-82